createdAt,value
2023-05-22T00:03:50.898Z,14.77
2023-05-22T00:18:52.717Z,14.36
2023-05-22T00:33:54.531Z,14.85
2023-05-22T00:48:56.461Z,14.83
2023-05-22T01:03:59.706Z,15.04
2023-05-22T01:19:39.555Z,15.19
2023-05-22T01:34:45.256Z,15.17
2023-05-22T01:49:47.440Z,15.20
2023-05-22T02:04:53.438Z,15.15
2023-05-22T02:19:55.168Z,14.90
2023-05-22T02:34:58.644Z,14.65
2023-05-22T02:50:00.540Z,14.51
2023-05-22T03:05:02.261Z,14.28
2023-05-22T03:20:05.427Z,14.45
2023-05-22T03:35:07.667Z,14.45
2023-05-22T03:50:09.916Z,14.93
2023-05-22T04:05:11.683Z,14.94
2023-05-22T04:20:13.652Z,15.86
2023-05-22T04:35:18.737Z,16.65
2023-05-22T04:50:21.253Z,17.01
2023-05-22T05:05:23.242Z,19.43
2023-05-22T05:20:25.074Z,20.99
2023-05-22T05:35:26.848Z,22.24
2023-05-22T05:50:28.629Z,22.95
2023-05-22T06:05:30.553Z,23.87
2023-05-22T06:20:32.341Z,22.72
2023-05-22T06:35:34.116Z,21.13
2023-05-22T06:50:36.023Z,21.22
2023-05-22T07:05:37.828Z,22.47
2023-05-22T07:20:39.755Z,21.95
2023-05-22T07:35:41.676Z,21.16
2023-05-22T07:50:45.538Z,21.65
2023-05-22T08:05:47.670Z,21.54
2023-05-22T08:20:49.838Z,21.76
2023-05-22T08:35:51.670Z,21.67
2023-05-22T08:50:59.922Z,22.09
2023-05-22T09:06:02.480Z,23.09
2023-05-22T09:21:11.382Z,21.80
2023-05-22T09:36:20.089Z,21.67
2023-05-22T09:51:27.594Z,20.90
2023-05-22T10:06:31.611Z,20.47
2023-05-22T10:21:37.117Z,20.36
2023-05-22T10:37:16.950Z,19.85
2023-05-22T10:52:22.074Z,17.01
2023-05-22T11:07:23.895Z,18.59
2023-05-22T11:22:43.023Z,19.61
2023-05-22T11:37:45.549Z,18.47
2023-05-22T11:52:48.077Z,17.08
2023-05-22T12:07:50.062Z,17.49
2023-05-22T12:22:51.842Z,17.16
2023-05-22T12:37:53.586Z,17.49
2023-05-22T12:52:55.554Z,17.84
2023-05-22T13:07:57.411Z,17.62
2023-05-22T13:22:59.173Z,18.26
2023-05-22T13:38:01.039Z,18.55
2023-05-22T13:53:02.884Z,20.00
2023-05-22T14:08:04.676Z,21.10
2023-05-22T14:23:06.384Z,20.84
2023-05-22T14:38:08.186Z,20.33
2023-05-22T14:53:09.968Z,19.64
2023-05-22T15:08:11.749Z,19.21
2023-05-22T15:23:13.862Z,18.53
2023-05-22T15:38:16.320Z,17.86
2023-05-22T15:53:18.144Z,17.08
2023-05-22T16:08:19.936Z,17.46
2023-05-22T16:23:21.765Z,17.58
2023-05-22T16:38:23.619Z,17.19
2023-05-22T16:53:25.620Z,16.72
2023-05-22T17:08:28.497Z,16.20
2023-05-22T17:23:30.459Z,15.99
2023-05-22T17:38:32.298Z,15.88
2023-05-22T17:53:35.186Z,15.41
2023-05-22T18:08:40.081Z,15.31
2023-05-22T18:23:41.846Z,15.14
2023-05-22T18:38:43.674Z,14.80
2023-05-22T18:53:46.270Z,14.31
2023-05-22T19:08:48.045Z,14.28
2023-05-22T19:23:49.788Z,14.39
2023-05-22T19:38:53.503Z,14.58
2023-05-22T19:53:55.851Z,14.75
2023-05-22T20:08:57.973Z,14.62
2023-05-22T20:23:59.768Z,14.24
2023-05-22T20:39:01.960Z,14.51
2023-05-22T20:54:04.303Z,14.37
2023-05-22T21:09:06.252Z,14.76
2023-05-22T21:24:11.225Z,14.94
2023-05-22T21:39:13.025Z,14.96
2023-05-22T21:54:14.708Z,14.94
2023-05-22T22:09:16.463Z,14.77
2023-05-22T22:24:18.480Z,14.69
2023-05-22T22:39:20.548Z,14.62
2023-05-22T22:54:22.278Z,14.68
2023-05-22T23:09:24.329Z,14.35
2023-05-22T23:24:26.067Z,14.29
2023-05-22T23:39:27.810Z,14.25
2023-05-22T23:54:29.556Z,14.28
